sensor_id;sensor_type;location;lat;lon;timestamp;temperature;humidity
77467;DHT22;66564;42.482;25.548;2023-07-20T00:02:14;29.10;41.96
77467;DHT22;66564;42.482;25.548;2023-07-20T00:04:40;28.96;42.33
77467;DHT22;66564;42.482;25.548;2023-07-20T00:07:05;28.89;41.60
77467;DHT22;66564;42.482;25.548;2023-07-20T00:09:31;28.80;41.94
77467;DHT22;66564;42.482;25.548;2023-07-20T00:11:56;28.71;41.40
77467;DHT22;66564;42.482;25.548;2023-07-20T00:14:22;28.68;43.50
77467;DHT22;66564;42.482;25.548;2023-07-20T00:16:50;28.68;42.25
77467;DHT22;66564;42.482;25.548;2023-07-20T00:19:24;28.61;42.33
77467;DHT22;66564;42.482;25.548;2023-07-20T00:21:50;28.55;42.59
77467;DHT22;66564;42.482;25.548;2023-07-20T00:24:16;28.51;42.93
77467;DHT22;66564;42.482;25.548;2023-07-20T00:26:42;28.41;42.03
77467;DHT22;66564;42.482;25.548;2023-07-20T00:29:07;28.37;43.63
77467;DHT22;66564;42.482;25.548;2023-07-20T00:31:32;28.29;43.19
77467;DHT22;66564;42.482;25.548;2023-07-20T00:34:00;28.25;42.77
77467;DHT22;66564;42.482;25.548;2023-07-20T00:36:25;28.21;43.93
77467;DHT22;66564;42.482;25.548;2023-07-20T00:38:51;28.21;43.08
77467;DHT22;66564;42.482;25.548;2023-07-20T00:41:16;28.11;42.77
77467;DHT22;66564;42.482;25.548;2023-07-20T00:43:42;28.15;43.01
77467;DHT22;66564;42.482;25.548;2023-07-20T00:46:08;28.11;42.93
77467;DHT22;66564;42.482;25.548;2023-07-20T00:48:35;28.08;42.20
77467;DHT22;66564;42.482;25.548;2023-07-20T00:51:01;27.97;44.23
77467;DHT22;66564;42.482;25.548;2023-07-20T00:53:27;28.01;42.90
77467;DHT22;66564;42.482;25.548;2023-07-20T00:55:53;28.07;43.64
77467;DHT22;66564;42.482;25.548;2023-07-20T00:58:19;28.10;42.56
77467;DHT22;66564;42.482;25.548;2023-07-20T01:00:46;28.14;42.50
77467;DHT22;66564;42.482;25.548;2023-07-20T01:03:12;28.22;41.84
77467;DHT22;66564;42.482;25.548;2023-07-20T01:05:53;28.18;42.82
77467;DHT22;66564;42.482;25.548;2023-07-20T01:14:08;28.13;42.48
77467;DHT22;66564;42.482;25.548;2023-07-20T01:16:34;28.14;42.56
77467;DHT22;66564;42.482;25.548;2023-07-20T01:18:59;28.17;42.01
77467;DHT22;66564;42.482;25.548;2023-07-20T01:21:33;28.21;41.66
77467;DHT22;66564;42.482;25.548;2023-07-20T01:32:57;28.20;43.02
77467;DHT22;66564;42.482;25.548;2023-07-20T01:35:27;28.22;42.73
77467;DHT22;66564;42.482;25.548;2023-07-20T01:37:53;28.27;42.43
77467;DHT22;66564;42.482;25.548;2023-07-20T01:40:19;28.31;42.60
77467;DHT22;66564;42.482;25.548;2023-07-20T01:42:46;28.33;42.70
77467;DHT22;66564;42.482;25.548;2023-07-20T01:45:12;28.34;42.08
77467;DHT22;66564;42.482;25.548;2023-07-20T01:47:38;28.40;42.12
77467;DHT22;66564;42.482;25.548;2023-07-20T01:50:04;28.44;42.19
77467;DHT22;66564;42.482;25.548;2023-07-20T01:52:30;28.47;41.82
77467;DHT22;66564;42.482;25.548;2023-07-20T01:54:55;28.51;41.81
77467;DHT22;66564;42.482;25.548;2023-07-20T01:57:20;28.51;42.03
77467;DHT22;66564;42.482;25.548;2023-07-20T01:59:46;28.52;42.11
77467;DHT22;66564;42.482;25.548;2023-07-20T02:02:11;28.57;41.67
77467;DHT22;66564;42.482;25.548;2023-07-20T02:04:37;28.57;41.64
77467;DHT22;66564;42.482;25.548;2023-07-20T02:07:02;28.58;41.64
77467;DHT22;66564;42.482;25.548;2023-07-20T02:09:28;28.59;41.84
77467;DHT22;66564;42.482;25.548;2023-07-20T02:11:53;28.59;41.63
77467;DHT22;66564;42.482;25.548;2023-07-20T02:14:19;28.61;41.22
77467;DHT22;66564;42.482;25.548;2023-07-20T02:16:45;28.62;41.38
77467;DHT22;66564;42.482;25.548;2023-07-20T02:19:10;28.65;41.16
77467;DHT22;66564;42.482;25.548;2023-07-20T02:21:37;28.67;40.98
77467;DHT22;66564;42.482;25.548;2023-07-20T02:24:03;28.62;41.16
77467;DHT22;66564;42.482;25.548;2023-07-20T02:26:28;28.62;40.70
77467;DHT22;66564;42.482;25.548;2023-07-20T02:28:54;28.52;40.69
77467;DHT22;66564;42.482;25.548;2023-07-20T02:31:19;28.51;40.69
77467;DHT22;66564;42.482;25.548;2023-07-20T02:33:45;28.51;40.84
77467;DHT22;66564;42.482;25.548;2023-07-20T02:36:11;28.44;41.59
77467;DHT22;66564;42.482;25.548;2023-07-20T02:38:36;28.38;42.28
77467;DHT22;66564;42.482;25.548;2023-07-20T02:41:01;28.40;41.76
77467;DHT22;66564;42.482;25.548;2023-07-20T02:43:27;28.37;41.72
77467;DHT22;66564;42.482;25.548;2023-07-20T02:45:53;28.37;41.78
77467;DHT22;66564;42.482;25.548;2023-07-20T02:48:19;28.29;42.08
77467;DHT22;66564;42.482;25.548;2023-07-20T02:50:44;28.24;42.15
77467;DHT22;66564;42.482;25.548;2023-07-20T02:53:10;28.21;42.14
77467;DHT22;66564;42.482;25.548;2023-07-20T02:55:35;28.20;42.29
77467;DHT22;66564;42.482;25.548;2023-07-20T02:58:01;28.24;41.79
77467;DHT22;66564;42.482;25.548;2023-07-20T03:00:26;28.18;42.08
77467;DHT22;66564;42.482;25.548;2023-07-20T03:02:52;28.14;42.03
77467;DHT22;66564;42.482;25.548;2023-07-20T03:05:22;28.20;42.16
77467;DHT22;66564;42.482;25.548;2023-07-20T03:07:51;28.20;42.03
77467;DHT22;66564;42.482;25.548;2023-07-20T03:10:16;28.22;42.11
77467;DHT22;66564;42.482;25.548;2023-07-20T03:12:42;28.21;41.85
77467;DHT22;66564;42.482;25.548;2023-07-20T03:15:08;28.22;42.00
77467;DHT22;66564;42.482;25.548;2023-07-20T03:17:33;28.13;43.34
77467;DHT22;66564;42.482;25.548;2023-07-20T03:19:59;28.05;43.09
77467;DHT22;66564;42.482;25.548;2023-07-20T03:22:26;28.07;42.98
77467;DHT22;66564;42.482;25.548;2023-07-20T03:24:51;27.96;42.45
77467;DHT22;66564;42.482;25.548;2023-07-20T03:27:18;27.97;42.72
77467;DHT22;66564;42.482;25.548;2023-07-20T03:29:43;27.90;42.05
77467;DHT22;66564;42.482;25.548;2023-07-20T03:32:09;27.90;42.65
77467;DHT22;66564;42.482;25.548;2023-07-20T03:34:35;27.91;42.58
77467;DHT22;66564;42.482;25.548;2023-07-20T03:37:00;27.84;43.65
77467;DHT22;66564;42.482;25.548;2023-07-20T03:39:26;27.90;42.78
77467;DHT22;66564;42.482;25.548;2023-07-20T03:41:52;27.94;43.21
77467;DHT22;66564;42.482;25.548;2023-07-20T03:44:21;27.93;42.92
77467;DHT22;66564;42.482;25.548;2023-07-20T03:46:46;27.93;43.49
77467;DHT22;66564;42.482;25.548;2023-07-20T03:49:12;27.90;43.21
77467;DHT22;66564;42.482;25.548;2023-07-20T03:51:37;28.00;43.13
77467;DHT22;66564;42.482;25.548;2023-07-20T03:54:03;27.97;43.51
77467;DHT22;66564;42.482;25.548;2023-07-20T03:56:29;27.97;43.20
77467;DHT22;66564;42.482;25.548;2023-07-20T03:59:01;28.03;43.20
77467;DHT22;66564;42.482;25.548;2023-07-20T04:01:28;28.07;43.37
77467;DHT22;66564;42.482;25.548;2023-07-20T04:03:54;28.08;43.13
77467;DHT22;66564;42.482;25.548;2023-07-20T04:06:25;28.10;42.80
77467;DHT22;66564;42.482;25.548;2023-07-20T04:08:50;28.13;43.06
77467;DHT22;66564;42.482;25.548;2023-07-20T04:11:16;28.15;43.48
77467;DHT22;66564;42.482;25.548;2023-07-20T04:13:41;28.17;43.53
77467;DHT22;66564;42.482;25.548;2023-07-20T04:16:07;28.17;43.10
77467;DHT22;66564;42.482;25.548;2023-07-20T04:18:32;28.15;43.21
77467;DHT22;66564;42.482;25.548;2023-07-20T04:20:58;28.05;43.13
77467;DHT22;66564;42.482;25.548;2023-07-20T04:23:23;27.94;46.39
77467;DHT22;66564;42.482;25.548;2023-07-20T04:25:49;27.98;46.31
77467;DHT22;66564;42.482;25.548;2023-07-20T04:28:14;27.97;46.05
77467;DHT22;66564;42.482;25.548;2023-07-20T04:30:39;28.00;45.77
77467;DHT22;66564;42.482;25.548;2023-07-20T04:33:05;27.96;44.92
77467;DHT22;66564;42.482;25.548;2023-07-20T04:38:12;28.07;45.24
77467;DHT22;66564;42.482;25.548;2023-07-20T04:40:38;28.14;44.42
77467;DHT22;66564;42.482;25.548;2023-07-20T04:43:03;28.25;43.76
77467;DHT22;66564;42.482;25.548;2023-07-20T04:45:29;28.15;45.56
77467;DHT22;66564;42.482;25.548;2023-07-20T04:47:55;28.24;45.47
77467;DHT22;66564;42.482;25.548;2023-07-20T04:50:20;28.15;45.87
77467;DHT22;66564;42.482;25.548;2023-07-20T04:52:46;28.20;45.98
77467;DHT22;66564;42.482;25.548;2023-07-20T04:55:11;28.21;45.26
77467;DHT22;66564;42.482;25.548;2023-07-20T04:57:37;28.22;44.81
77467;DHT22;66564;42.482;25.548;2023-07-20T05:00:03;28.27;45.16
77467;DHT22;66564;42.482;25.548;2023-07-20T05:02:28;28.27;45.21
77467;DHT22;66564;42.482;25.548;2023-07-20T05:04:54;28.34;45.74
77467;DHT22;66564;42.482;25.548;2023-07-20T05:07:20;28.37;44.87
77467;DHT22;66564;42.482;25.548;2023-07-20T05:09:45;28.43;45.10
77467;DHT22;66564;42.482;25.548;2023-07-20T05:12:11;28.51;45.37
77467;DHT22;66564;42.482;25.548;2023-07-20T05:14:38;28.59;44.65
77467;DHT22;66564;42.482;25.548;2023-07-20T05:17:03;28.67;44.53
77467;DHT22;66564;42.482;25.548;2023-07-20T05:19:29;28.72;44.35
77467;DHT22;66564;42.482;25.548;2023-07-20T05:21:54;28.82;44.48
77467;DHT22;66564;42.482;25.548;2023-07-20T05:24:20;28.89;44.43
77467;DHT22;66564;42.482;25.548;2023-07-20T05:26:48;29.00;44.44
77467;DHT22;66564;42.482;25.548;2023-07-20T05:29:13;29.05;43.91
77467;DHT22;66564;42.482;25.548;2023-07-20T05:31:39;29.12;43.67
77467;DHT22;66564;42.482;25.548;2023-07-20T05:34:05;29.20;43.64
77467;DHT22;66564;42.482;25.548;2023-07-20T05:36:30;29.25;43.78
77467;DHT22;66564;42.482;25.548;2023-07-20T05:38:56;29.32;42.91
77467;DHT22;66564;42.482;25.548;2023-07-20T05:41:21;29.42;42.41
77467;DHT22;66564;42.482;25.548;2023-07-20T05:43:48;29.50;42.42
77467;DHT22;66564;42.482;25.548;2023-07-20T05:46:13;29.56;41.48
77467;DHT22;66564;42.482;25.548;2023-07-20T05:48:39;29.63;40.80
77467;DHT22;66564;42.482;25.548;2023-07-20T05:51:05;29.73;40.84
77467;DHT22;66564;42.482;25.548;2023-07-20T05:53:31;29.86;41.09
77467;DHT22;66564;42.482;25.548;2023-07-20T05:55:56;29.93;39.82
77467;DHT22;66564;42.482;25.548;2023-07-20T05:58:22;30.06;38.37
77467;DHT22;66564;42.482;25.548;2023-07-20T06:00:49;30.11;38.78
77467;DHT22;66564;42.482;25.548;2023-07-20T06:03:15;30.21;40.95
77467;DHT22;66564;42.482;25.548;2023-07-20T06:05:42;30.13;41.07
77467;DHT22;66564;42.482;25.548;2023-07-20T06:08:07;30.29;40.69
77467;DHT22;66564;42.482;25.548;2023-07-20T06:10:33;30.41;39.88
77467;DHT22;66564;42.482;25.548;2023-07-20T06:12:58;30.47;38.69
77467;DHT22;66564;42.482;25.548;2023-07-20T06:15:30;30.65;38.42
77467;DHT22;66564;42.482;25.548;2023-07-20T06:17:56;30.79;39.03
77467;DHT22;66564;42.482;25.548;2023-07-20T06:20:23;30.91;38.58
77467;DHT22;66564;42.482;25.548;2023-07-20T06:22:49;31.03;37.55
77467;DHT22;66564;42.482;25.548;2023-07-20T06:25:14;31.18;38.22
77467;DHT22;66564;42.482;25.548;2023-07-20T06:27:40;31.30;37.39
77467;DHT22;66564;42.482;25.548;2023-07-20T06:30:06;31.44;37.73
77467;DHT22;66564;42.482;25.548;2023-07-20T06:32:31;31.59;37.03
77467;DHT22;66564;42.482;25.548;2023-07-20T06:34:57;31.73;37.44
77467;DHT22;66564;42.482;25.548;2023-07-20T06:37:23;31.87;36.92
77467;DHT22;66564;42.482;25.548;2023-07-20T06:39:49;32.03;36.37
77467;DHT22;66564;42.482;25.548;2023-07-20T06:42:15;32.16;36.57
77467;DHT22;66564;42.482;25.548;2023-07-20T06:44:40;32.31;36.69
77467;DHT22;66564;42.482;25.548;2023-07-20T06:47:06;32.51;36.65
77467;DHT22;66564;42.482;25.548;2023-07-20T06:49:31;32.70;36.27
77467;DHT22;66564;42.482;25.548;2023-07-20T06:51:57;32.83;35.16
77467;DHT22;66564;42.482;25.548;2023-07-20T06:54:22;32.94;34.41
77467;DHT22;66564;42.482;25.548;2023-07-20T06:56:51;33.06;34.13
77467;DHT22;66564;42.482;25.548;2023-07-20T06:59:17;33.16;34.80
77467;DHT22;66564;42.482;25.548;2023-07-20T07:01:42;33.36;34.33
77467;DHT22;66564;42.482;25.548;2023-07-20T07:04:08;33.52;33.90
77467;DHT22;66564;42.482;25.548;2023-07-20T07:06:33;33.66;33.07
77467;DHT22;66564;42.482;25.548;2023-07-20T07:08:59;33.70;32.71
77467;DHT22;66564;42.482;25.548;2023-07-20T07:11:25;33.86;33.36
77467;DHT22;66564;42.482;25.548;2023-07-20T07:13:50;34.07;33.49
77467;DHT22;66564;42.482;25.548;2023-07-20T07:16:17;34.14;32.47
77467;DHT22;66564;42.482;25.548;2023-07-20T07:18:49;34.11;31.82
77467;DHT22;66564;42.482;25.548;2023-07-20T07:21:15;34.16;32.91
77467;DHT22;66564;42.482;25.548;2023-07-20T07:23:41;34.23;32.42
77467;DHT22;66564;42.482;25.548;2023-07-20T07:26:06;34.37;32.51
77467;DHT22;66564;42.482;25.548;2023-07-20T07:28:32;34.44;32.45
77467;DHT22;66564;42.482;25.548;2023-07-20T07:30:58;34.54;32.28
77467;DHT22;66564;42.482;25.548;2023-07-20T07:33:26;34.64;32.83
77467;DHT22;66564;42.482;25.548;2023-07-20T07:35:52;34.70;32.63
77467;DHT22;66564;42.482;25.548;2023-07-20T07:38:18;34.84;32.31
77467;DHT22;66564;42.482;25.548;2023-07-20T07:40:44;34.91;31.78
77467;DHT22;66564;42.482;25.548;2023-07-20T07:43:09;34.70;31.84
77467;DHT22;66564;42.482;25.548;2023-07-20T07:45:35;34.91;32.05
77467;DHT22;66564;42.482;25.548;2023-07-20T07:48:05;35.05;32.08
77467;DHT22;66564;42.482;25.548;2023-07-20T07:50:31;35.25;32.13
77467;DHT22;66564;42.482;25.548;2023-07-20T07:52:56;35.38;32.31
77467;DHT22;66564;42.482;25.548;2023-07-20T07:55:22;35.55;31.44
77467;DHT22;66564;42.482;25.548;2023-07-20T07:57:47;35.62;31.05
77467;DHT22;66564;42.482;25.548;2023-07-20T08:00:13;35.79;31.01
77467;DHT22;66564;42.482;25.548;2023-07-20T08:02:43;35.99;30.36
77467;DHT22;66564;42.482;25.548;2023-07-20T08:05:09;36.16;30.12
77467;DHT22;66564;42.482;25.548;2023-07-20T08:07:36;36.34;30.06
77467;DHT22;66564;42.482;25.548;2023-07-20T08:10:01;36.41;30.15
77467;DHT22;66564;42.482;25.548;2023-07-20T08:12:27;36.61;29.63
77467;DHT22;66564;42.482;25.548;2023-07-20T08:14:52;36.81;29.74
77467;DHT22;66564;42.482;25.548;2023-07-20T08:17:18;36.99;29.76
77467;DHT22;66564;42.482;25.548;2023-07-20T08:19:52;37.08;28.72
77467;DHT22;66564;42.482;25.548;2023-07-20T08:22:20;37.28;29.08
77467;DHT22;66564;42.482;25.548;2023-07-20T08:24:46;37.32;29.12
77467;DHT22;66564;42.482;25.548;2023-07-20T08:27:12;37.52;29.72
77467;DHT22;66564;42.482;25.548;2023-07-20T08:29:37;37.70;28.75
77467;DHT22;66564;42.482;25.548;2023-07-20T08:32:08;37.92;29.20
77467;DHT22;66564;42.482;25.548;2023-07-20T08:34:33;38.09;27.98
77467;DHT22;66564;42.482;25.548;2023-07-20T08:36:59;38.16;28.25
77467;DHT22;66564;42.482;25.548;2023-07-20T08:39:24;38.26;28.02
77467;DHT22;66564;42.482;25.548;2023-07-20T08:41:50;38.41;27.56
77467;DHT22;66564;42.482;25.548;2023-07-20T08:44:17;38.57;27.53
77467;DHT22;66564;42.482;25.548;2023-07-20T08:46:42;38.73;27.24
77467;DHT22;66564;42.482;25.548;2023-07-20T08:49:09;38.83;26.56
77467;DHT22;66564;42.482;25.548;2023-07-20T08:51:36;38.93;26.72
77467;DHT22;66564;42.482;25.548;2023-07-20T08:54:02;39.05;26.98
77467;DHT22;66564;42.482;25.548;2023-07-20T08:56:28;39.14;27.86
77467;DHT22;66564;42.482;25.548;2023-07-20T08:59:01;39.28;27.09
77467;DHT22;66564;42.482;25.548;2023-07-20T09:01:40;39.47;27.71
77467;DHT22;66564;42.482;25.548;2023-07-20T09:04:12;39.65;27.08
77467;DHT22;66564;42.482;25.548;2023-07-20T09:06:38;39.81;27.71
77467;DHT22;66564;42.482;25.548;2023-07-20T09:09:04;39.95;26.20
77467;DHT22;66564;42.482;25.548;2023-07-20T09:11:30;40.00;25.79
77467;DHT22;66564;42.482;25.548;2023-07-20T09:14:03;40.02;25.77
77467;DHT22;66564;42.482;25.548;2023-07-20T09:16:29;40.06;25.35
77467;DHT22;66564;42.482;25.548;2023-07-20T09:18:57;40.02;26.02
77467;DHT22;66564;42.482;25.548;2023-07-20T09:21:23;40.12;25.71
77467;DHT22;66564;42.482;25.548;2023-07-20T09:23:48;40.10;25.37
77467;DHT22;66564;42.482;25.548;2023-07-20T09:26:18;40.15;25.85
77467;DHT22;66564;42.482;25.548;2023-07-20T09:31:17;40.26;25.11
77467;DHT22;66564;42.482;25.548;2023-07-20T09:33:44;40.32;25.34
77467;DHT22;66564;42.482;25.548;2023-07-20T09:36:10;40.42;25.50
77467;DHT22;66564;42.482;25.548;2023-07-20T09:38:42;40.57;25.73
77467;DHT22;66564;42.482;25.548;2023-07-20T09:41:13;40.79;25.59
77467;DHT22;66564;42.482;25.548;2023-07-20T09:43:39;40.90;25.93
77467;DHT22;66564;42.482;25.548;2023-07-20T09:46:05;41.05;24.75
77467;DHT22;66564;42.482;25.548;2023-07-20T09:48:30;41.18;24.52
77467;DHT22;66564;42.482;25.548;2023-07-20T09:50:56;41.30;24.64
77467;DHT22;66564;42.482;25.548;2023-07-20T09:53:24;41.34;24.33
77467;DHT22;66564;42.482;25.548;2023-07-20T09:55:50;41.33;24.16
77467;DHT22;66564;42.482;25.548;2023-07-20T09:58:22;41.35;24.31
77467;DHT22;66564;42.482;25.548;2023-07-20T10:00:48;41.45;24.16
77467;DHT22;66564;42.482;25.548;2023-07-20T10:03:19;41.57;22.93
77467;DHT22;66564;42.482;25.548;2023-07-20T10:05:54;41.61;22.89
77467;DHT22;66564;42.482;25.548;2023-07-20T10:08:26;41.67;21.71
77467;DHT22;66564;42.482;25.548;2023-07-20T10:10:54;41.71;21.71
77467;DHT22;66564;42.482;25.548;2023-07-20T10:13:27;41.42;21.48
77467;DHT22;66564;42.482;25.548;2023-07-20T10:16:03;41.38;22.22
77467;DHT22;66564;42.482;25.548;2023-07-20T10:18:33;41.44;22.21
77467;DHT22;66564;42.482;25.548;2023-07-20T10:21:00;41.48;22.32
77467;DHT22;66564;42.482;25.548;2023-07-20T10:23:29;41.54;21.99
77467;DHT22;66564;42.482;25.548;2023-07-20T10:25:55;41.59;22.28
77467;DHT22;66564;42.482;25.548;2023-07-20T10:28:22;41.54;21.90
77467;DHT22;66564;42.482;25.548;2023-07-20T10:30:48;41.51;22.21
77467;DHT22;66564;42.482;25.548;2023-07-20T10:33:16;41.47;22.03
77467;DHT22;66564;42.482;25.548;2023-07-20T10:35:52;41.35;21.72
77467;DHT22;66564;42.482;25.548;2023-07-20T10:38:18;41.30;22.67
77467;DHT22;66564;42.482;25.548;2023-07-20T10:40:54;41.39;21.92
77467;DHT22;66564;42.482;25.548;2023-07-20T10:43:19;41.44;22.81
77467;DHT22;66564;42.482;25.548;2023-07-20T10:45:54;41.52;21.93
77467;DHT22;66564;42.482;25.548;2023-07-20T10:48:22;41.67;21.94
77467;DHT22;66564;42.482;25.548;2023-07-20T10:51:13;41.75;21.88
77467;DHT22;66564;42.482;25.548;2023-07-20T10:53:40;41.82;21.66
77467;DHT22;66564;42.482;25.548;2023-07-20T10:56:11;41.71;21.54
77467;DHT22;66564;42.482;25.548;2023-07-20T10:58:37;41.65;22.08
77467;DHT22;66564;42.482;25.548;2023-07-20T11:01:05;41.71;23.21
77467;DHT22;66564;42.482;25.548;2023-07-20T11:03:38;41.85;22.51
77467;DHT22;66564;42.482;25.548;2023-07-20T11:08:55;42.08;21.73
77467;DHT22;66564;42.482;25.548;2023-07-20T11:14:25;41.82;23.93
77467;DHT22;66564;42.482;25.548;2023-07-20T11:16:52;41.77;24.16
77467;DHT22;66564;42.482;25.548;2023-07-20T11:19:25;41.57;24.57
77467;DHT22;66564;42.482;25.548;2023-07-20T11:21:55;41.37;24.66
77467;DHT22;66564;42.482;25.548;2023-07-20T11:24:21;41.08;24.89
77467;DHT22;66564;42.482;25.548;2023-07-20T11:26:52;41.03;25.00
77467;DHT22;66564;42.482;25.548;2023-07-20T11:29:22;40.64;25.08
77467;DHT22;66564;42.482;25.548;2023-07-20T11:31:51;40.63;24.98
77467;DHT22;66564;42.482;25.548;2023-07-20T11:34:18;40.59;25.47
77467;DHT22;66564;42.482;25.548;2023-07-20T11:36:59;40.37;25.48
77467;DHT22;66564;42.482;25.548;2023-07-20T11:39:27;40.28;25.65
77467;DHT22;66564;42.482;25.548;2023-07-20T11:42:05;40.17;25.82
77467;DHT22;66564;42.482;25.548;2023-07-20T11:44:35;39.90;25.48
77467;DHT22;66564;42.482;25.548;2023-07-20T11:47:07;39.76;25.39
77467;DHT22;66564;42.482;25.548;2023-07-20T11:49:37;39.66;25.99
77467;DHT22;66564;42.482;25.548;2023-07-20T11:52:13;39.55;26.04
77467;DHT22;66564;42.482;25.548;2023-07-20T11:54:41;39.59;26.21
77467;DHT22;66564;42.482;25.548;2023-07-20T11:57:07;39.55;26.18
77467;DHT22;66564;42.482;25.548;2023-07-20T11:59:33;39.52;26.27
77467;DHT22;66564;42.482;25.548;2023-07-20T12:02:01;39.42;26.07
77467;DHT22;66564;42.482;25.548;2023-07-20T12:04:26;39.39;26.47
77467;DHT22;66564;42.482;25.548;2023-07-20T12:06:53;39.25;26.41
77467;DHT22;66564;42.482;25.548;2023-07-20T12:09:19;38.95;26.77
77467;DHT22;66564;42.482;25.548;2023-07-20T12:11:45;38.83;27.04
77467;DHT22;66564;42.482;25.548;2023-07-20T12:14:11;38.87;26.78
77467;DHT22;66564;42.482;25.548;2023-07-20T12:16:37;38.91;26.86
77467;DHT22;66564;42.482;25.548;2023-07-20T12:19:05;38.91;26.79
77467;DHT22;66564;42.482;25.548;2023-07-20T12:21:31;38.91;26.53
77467;DHT22;66564;42.482;25.548;2023-07-20T12:23:58;38.98;26.97
77467;DHT22;66564;42.482;25.548;2023-07-20T12:26:25;39.00;26.62
77467;DHT22;66564;42.482;25.548;2023-07-20T12:28:51;38.85;26.49
77467;DHT22;66564;42.482;25.548;2023-07-20T12:31:17;38.74;26.66
77467;DHT22;66564;42.482;25.548;2023-07-20T12:33:43;38.73;26.95
77467;DHT22;66564;42.482;25.548;2023-07-20T12:36:09;38.70;26.98
77467;DHT22;66564;42.482;25.548;2023-07-20T12:38:35;38.67;27.07
77467;DHT22;66564;42.482;25.548;2023-07-20T12:41:01;38.57;27.11
77467;DHT22;66564;42.482;25.548;2023-07-20T12:43:27;38.56;27.31
77467;DHT22;66564;42.482;25.548;2023-07-20T12:45:53;38.43;27.26
77467;DHT22;66564;42.482;25.548;2023-07-20T12:48:20;38.39;27.46
77467;DHT22;66564;42.482;25.548;2023-07-20T12:50:45;38.20;27.67
77467;DHT22;66564;42.482;25.548;2023-07-20T12:53:11;38.16;27.37
77467;DHT22;66564;42.482;25.548;2023-07-20T12:55:37;38.12;27.89
77467;DHT22;66564;42.482;25.548;2023-07-20T12:58:03;38.03;28.02
77467;DHT22;66564;42.482;25.548;2023-07-20T13:00:28;38.00;28.19
77467;DHT22;66564;42.482;25.548;2023-07-20T13:02:54;37.90;27.97
77467;DHT22;66564;42.482;25.548;2023-07-20T13:05:19;37.85;28.39
77467;DHT22;66564;42.482;25.548;2023-07-20T13:07:45;37.92;28.33
77467;DHT22;66564;42.482;25.548;2023-07-20T13:10:11;37.96;28.06
77467;DHT22;66564;42.482;25.548;2023-07-20T13:12:37;37.92;28.43
77467;DHT22;66564;42.482;25.548;2023-07-20T13:15:05;37.65;28.68
77467;DHT22;66564;42.482;25.548;2023-07-20T13:17:32;37.59;28.93
77467;DHT22;66564;42.482;25.548;2023-07-20T13:19:58;37.48;29.06
77467;DHT22;66564;42.482;25.548;2023-07-20T13:22:24;37.34;29.27
77467;DHT22;66564;42.482;25.548;2023-07-20T13:24:49;37.14;29.44
77467;DHT22;66564;42.482;25.548;2023-07-20T13:27:16;36.98;29.51
77467;DHT22;66564;42.482;25.548;2023-07-20T13:29:42;36.90;29.74
77467;DHT22;66564;42.482;25.548;2023-07-20T13:32:08;36.73;30.02
77467;DHT22;66564;42.482;25.548;2023-07-20T13:34:34;36.58;30.43
77467;DHT22;66564;42.482;25.548;2023-07-20T13:37:00;36.51;30.47
77467;DHT22;66564;42.482;25.548;2023-07-20T13:39:26;36.50;30.70
77467;DHT22;66564;42.482;25.548;2023-07-20T13:41:54;36.47;30.79
77467;DHT22;66564;42.482;25.548;2023-07-20T13:44:27;36.36;31.44
77467;DHT22;66564;42.482;25.548;2023-07-20T13:46:56;36.26;31.84
77467;DHT22;66564;42.482;25.548;2023-07-20T13:49:21;35.99;33.18
77467;DHT22;66564;42.482;25.548;2023-07-20T13:51:47;35.96;34.15
77467;DHT22;66564;42.482;25.548;2023-07-20T13:54:15;35.65;34.67
77467;DHT22;66564;42.482;25.548;2023-07-20T13:56:40;35.22;36.26
77467;DHT22;66564;42.482;25.548;2023-07-20T13:59:07;34.85;36.37
77467;DHT22;66564;42.482;25.548;2023-07-20T14:01:33;34.74;36.38
77467;DHT22;66564;42.482;25.548;2023-07-20T14:03:59;34.70;35.71
77467;DHT22;66564;42.482;25.548;2023-07-20T14:06:25;34.72;35.28
77467;DHT22;66564;42.482;25.548;2023-07-20T14:08:51;34.81;36.64
77467;DHT22;66564;42.482;25.548;2023-07-20T14:11:18;34.60;36.82
77467;DHT22;66564;42.482;25.548;2023-07-20T14:13:44;34.62;36.08
77467;DHT22;66564;42.482;25.548;2023-07-20T14:16:09;34.48;36.31
77467;DHT22;66564;42.482;25.548;2023-07-20T14:18:37;34.43;36.35
77467;DHT22;66564;42.482;25.548;2023-07-20T14:21:03;34.36;36.40
77467;DHT22;66564;42.482;25.548;2023-07-20T14:23:30;34.21;36.91
77467;DHT22;66564;42.482;25.548;2023-07-20T14:25:55;34.13;37.21
77467;DHT22;66564;42.482;25.548;2023-07-20T14:28:21;34.07;37.46
77467;DHT22;66564;42.482;25.548;2023-07-20T14:30:46;33.86;37.75
77467;DHT22;66564;42.482;25.548;2023-07-20T14:33:12;33.63;38.22
77467;DHT22;66564;42.482;25.548;2023-07-20T14:35:37;33.63;38.86
77467;DHT22;66564;42.482;25.548;2023-07-20T14:38:03;33.41;39.72
77467;DHT22;66564;42.482;25.548;2023-07-20T14:40:28;33.21;40.02
77467;DHT22;66564;42.482;25.548;2023-07-20T14:42:55;33.21;40.24
77467;DHT22;66564;42.482;25.548;2023-07-20T14:45:21;33.13;40.47
77467;DHT22;66564;42.482;25.548;2023-07-20T14:47:46;33.25;40.49
77467;DHT22;66564;42.482;25.548;2023-07-20T14:50:14;33.06;40.64
77467;DHT22;66564;42.482;25.548;2023-07-20T14:52:39;32.85;41.94
77467;DHT22;66564;42.482;25.548;2023-07-20T14:55:05;32.85;43.19
77467;DHT22;66564;42.482;25.548;2023-07-20T14:57:32;32.82;46.78
77467;DHT22;66564;42.482;25.548;2023-07-20T14:59:58;32.94;49.47
77467;DHT22;66564;42.482;25.548;2023-07-20T15:02:23;32.99;48.32
77467;DHT22;66564;42.482;25.548;2023-07-20T15:04:50;33.09;46.23
77467;DHT22;66564;42.482;25.548;2023-07-20T15:07:17;33.15;52.49
77467;DHT22;66564;42.482;25.548;2023-07-20T15:09:44;33.27;51.21
77467;DHT22;66564;42.482;25.548;2023-07-20T15:12:11;33.33;53.04
77467;DHT22;66564;42.482;25.548;2023-07-20T15:14:41;33.27;54.54
77467;DHT22;66564;42.482;25.548;2023-07-20T15:17:10;33.22;54.57
77467;DHT22;66564;42.482;25.548;2023-07-20T15:19:35;33.25;57.02
77467;DHT22;66564;42.482;25.548;2023-07-20T15:22:02;33.27;58.44
77467;DHT22;66564;42.482;25.548;2023-07-20T15:24:32;33.25;62.80
77467;DHT22;66564;42.482;25.548;2023-07-20T15:26:57;33.36;62.23
77467;DHT22;66564;42.482;25.548;2023-07-20T15:29:28;33.41;59.43
77467;DHT22;66564;42.482;25.548;2023-07-20T15:31:53;33.43;59.03
77467;DHT22;66564;42.482;25.548;2023-07-20T15:34:19;33.47;63.44
77467;DHT22;66564;42.482;25.548;2023-07-20T15:36:44;33.46;57.86
77467;DHT22;66564;42.482;25.548;2023-07-20T15:39:10;33.52;61.54